Time;durP1;ratioP1;P1;durP2;ratioP2;P2;SDS_P1;SDS_P2;PMS_P1;PMS_P2;Temp;Humidity;BMP_temperature;BMP_pressure;BME280_temperature;BME280_humidity;BME280_pressure;Samples;Min_cycle;Max_cycle;Signal;HPM_P1;HPM_P2
2022/08/29 00:00:37;;;;;;;12.80;11.18;;;;;;;23.26;52.20;94923.97;4993979;28;20278;-70
2022/08/29 00:03:05;;;;;;;14.60;10.35;;;;;;;23.22;52.68;94906.72;4999697;28;20219;-70
2022/08/29 00:05:34;;;;;;;12.73;10.68;;;;;;;23.25;52.92;94916.97;5008265;28;20695;-70
2022/08/29 00:08:01;;;;;;;13.23;10.02;;;;;;;23.21;52.14;94912.31;5011427;28;20213;-69
2022/08/29 00:10:28;;;;;;;11.60;10.25;;;;;;;23.19;51.97;94914.41;5009327;28;20229;-70
2022/08/29 00:12:54;;;;;;;11.10;10.00;;;;;;;23.13;52.26;94912.66;5007325;28;20223;-70
2022/08/29 00:15:20;;;;;;;14.07;10.68;;;;;;;23.17;52.73;94921.88;5007357;28;20280;-70
2022/08/29 00:17:45;;;;;;;11.45;9.27;;;;;;;22.99;53.39;94912.06;5003635;28;20202;-70
2022/08/29 00:20:15;;;;;;;10.70;9.20;;;;;;;23.00;52.88;94913.69;5006456;28;20237;-70
2022/08/29 00:22:41;;;;;;;10.73;9.63;;;;;;;23.05;52.40;94913.81;5007099;28;20277;-70
2022/08/29 00:25:08;;;;;;;12.60;8.90;;;;;;;23.06;52.31;94907.41;5008505;28;20854;-70
2022/08/29 00:27:34;;;;;;;13.07;8.30;;;;;;;23.04;51.54;94915.69;5000803;28;20219;-70
2022/08/29 00:30:00;;;;;;;14.40;8.63;;;;;;;22.96;50.66;94908.00;4994964;28;20226;-70
2022/08/29 00:32:25;;;;;;;13.18;9.00;;;;;;;22.97;51.09;94912.28;5002179;28;20273;-70
2022/08/29 00:34:51;;;;;;;12.73;9.65;;;;;;;23.00;51.17;94909.16;4995473;28;20234;-71
2022/08/29 00:37:17;;;;;;;9.43;8.48;;;;;;;22.88;51.37;94901.06;5011768;28;20226;-70
2022/08/29 00:39:42;;;;;;;10.30;9.23;;;;;;;22.82;51.33;94903.84;5005706;28;20226;-70
2022/08/29 00:42:07;;;;;;;12.75;9.13;;;;;;;22.83;51.65;94906.31;5010463;28;20218;-70
2022/08/29 00:44:33;;;;;;;10.48;9.15;;;;;;;22.73;52.36;94906.06;5008235;28;20266;-70
2022/08/29 00:47:04;;;;;;;10.52;9.25;;;;;;;22.83;51.79;94906.31;4994266;28;20199;-71
2022/08/29 00:49:29;;;;;;;11.93;8.98;;;;;;;23.02;50.85;94906.25;5009170;28;20710;-70
2022/08/29 00:51:59;;;;;;;12.27;9.50;;;;;;;23.00;52.68;94902.97;5007565;28;20231;-70
2022/08/29 00:54:25;;;;;;;10.07;8.68;;;;;;;22.93;53.03;94908.41;5002461;28;20365;-70
2022/08/29 00:56:52;;;;;;;10.63;9.55;;;;;;;22.85;53.88;94901.53;5002765;28;20227;-70
2022/08/29 00:59:25;;;;;;;11.48;9.55;;;;;;;22.76;53.92;94896.72;5006611;28;20278;-70
2022/08/29 01:01:50;;;;;;;11.63;10.00;;;;;;;22.62;54.60;94896.94;5012369;28;20292;-70
2022/08/29 01:04:17;;;;;;;10.25;9.13;;;;;;;22.36;55.61;94898.13;5011060;28;20688;-70
2022/08/29 01:06:42;;;;;;;10.13;8.80;;;;;;;22.30;55.50;94899.06;5012072;28;20382;-70
2022/08/29 01:09:09;;;;;;;11.98;8.88;;;;;;;22.45;55.09;94907.50;5010288;28;20305;-70
2022/08/29 01:14:22;;;;;;;10.70;8.93;;;;;;;22.48;54.30;94900.03;5004488;28;20217;-70
2022/08/29 01:16:49;;;;;;;11.35;9.35;;;;;;;22.45;53.95;94909.34;5007808;28;20865;-70
2022/08/29 01:19:18;;;;;;;10.90;9.75;;;;;;;22.19;54.71;94903.31;5010298;28;20226;-70
2022/08/29 01:21:58;;;;;;;10.05;9.05;;;;;;;22.21;54.65;94903.09;5010207;28;20227;-70
2022/08/29 01:24:49;;;;;;;10.48;9.43;;;;;;;22.28;54.59;94911.84;5015186;28;20214;-70
2022/08/29 01:27:20;;;;;;;10.48;8.85;;;;;;;22.33;54.43;94906.63;5008408;28;20277;-70
2022/08/29 01:29:46;;;;;;;9.68;8.77;;;;;;;22.23;54.56;94906.34;5011565;28;20306;-69
2022/08/29 01:32:12;;;;;;;12.35;9.13;;;;;;;22.16;54.59;94905.59;5011903;28;20210;-70
2022/08/29 01:34:39;;;;;;;14.20;9.55;;;;;;;22.22;54.36;94904.75;5012476;28;20365;-70
2022/08/29 01:37:07;;;;;;;11.38;8.90;;;;;;;22.16;54.39;94901.06;5008628;28;20264;-70
2022/08/29 01:39:37;;;;;;;11.30;9.35;;;;;;;22.19;54.24;94906.00;5009479;28;20226;-70
2022/08/29 01:42:09;;;;;;;11.75;8.60;;;;;;;22.16;54.31;94910.94;4998846;28;20226;-70
2022/08/29 01:44:35;;;;;;;9.90;8.70;;;;;;;22.09;54.41;94907.56;4996166;28;20211;-70
2022/08/29 01:47:02;;;;;;;10.27;9.25;;;;;;;22.15;54.14;94903.97;5009076;28;20223;-70
2022/08/29 01:49:29;;;;;;;10.10;9.05;;;;;;;22.10;54.49;94899.28;5013508;28;20313;-70
2022/08/29 01:51:54;;;;;;;14.25;9.00;;;;;;;22.02;54.93;94900.44;5011952;28;20226;-70
2022/08/29 01:54:20;;;;;;;10.43;9.43;;;;;;;21.96;54.63;94895.97;5012558;28;20219;-70
2022/08/29 01:56:50;;;;;;;10.50;9.30;;;;;;;22.16;55.37;94897.56;5009440;28;20241;-70
2022/08/29 01:59:25;;;;;;;12.27;9.35;;;;;;;22.11;55.97;94908.97;5009692;28;20203;-70
2022/08/29 02:01:59;;;;;;;14.35;9.60;;;;;;;21.86;56.36;94908.25;5005953;28;20241;-70
2022/08/29 02:04:26;;;;;;;10.68;9.30;;;;;;;21.85;56.40;94911.97;5022535;28;20209;-70
2022/08/29 02:06:51;;;;;;;10.90;9.85;;;;;;;21.90;56.58;94914.81;5002028;28;20782;-70
2022/08/29 02:09:17;;;;;;;11.77;9.60;;;;;;;21.85;56.37;94918.13;5003957;28;20228;-70
2022/08/29 02:11:44;;;;;;;11.77;10.68;;;;;;;21.98;56.02;94917.16;5006098;28;20213;-70
2022/08/29 02:14:10;;;;;;;15.80;10.95;;;;;;;21.80;56.71;94924.16;5010014;28;20203;-71
2022/08/29 02:16:35;;;;;;;11.43;10.10;;;;;;;22.01;56.00;94922.88;5013253;28;20929;-70
2022/08/29 02:19:01;;;;;;;16.27;11.52;;;;;;;21.77;56.86;94923.78;5009932;28;20238;-70
2022/08/29 02:21:29;;;;;;;12.05;10.85;;;;;;;21.66;56.76;94916.53;5009743;28;20530;-70
2022/08/29 02:23:57;;;;;;;12.60;10.70;;;;;;;21.55;57.19;94912.72;5002775;28;20872;-70
2022/08/29 02:26:23;;;;;;;13.25;10.77;;;;;;;21.63;57.08;94920.47;5012435;28;20203;-70
2022/08/29 02:28:52;;;;;;;17.35;12.25;;;;;;;21.76;56.50;94925.66;5013037;28;20219;-70
2022/08/29 02:31:19;;;;;;;13.65;11.43;;;;;;;21.76;56.36;94920.31;5023100;28;20251;-70
2022/08/29 02:33:45;;;;;;;12.13;10.60;;;;;;;21.62;56.73;94920.66;5004624;28;20219;-70
2022/08/29 02:36:11;;;;;;;12.15;10.82;;;;;;;21.56;57.04;94923.19;5008334;28;20212;-70
2022/08/29 02:38:38;;;;;;;12.50;11.05;;;;;;;21.54;57.17;94919.09;5008919;28;20735;-70
2022/08/29 02:41:04;;;;;;;11.75;10.75;;;;;;;21.53;57.14;94920.16;5009273;28;20210;-71
2022/08/29 02:43:30;;;;;;;15.27;12.23;;;;;;;21.63;56.49;94914.28;5011931;28;20228;-70
2022/08/29 02:45:55;;;;;;;13.10;11.27;;;;;;;21.43;57.23;94923.31;5010849;28;21118;-70
2022/08/29 02:48:21;;;;;;;17.20;11.30;;;;;;;21.28;57.65;94923.66;5010017;28;20219;-70
2022/08/29 02:50:50;;;;;;;13.88;11.50;;;;;;;21.45;56.87;94929.28;5004913;28;20235;-70
2022/08/29 02:53:18;;;;;;;13.05;11.60;;;;;;;21.49;56.83;94926.97;5007229;28;20866;-71
2022/08/29 02:55:46;;;;;;;16.85;11.73;;;;;;;21.50;56.74;94931.31;5006868;28;20241;-70
2022/08/29 02:58:12;;;;;;;13.13;11.93;;;;;;;21.42;56.78;94921.69;5010335;28;20314;-70
2022/08/29 03:00:38;;;;;;;14.27;11.43;;;;;;;21.44;57.08;94927.66;5008408;28;20261;-70
2022/08/29 03:03:04;;;;;;;12.90;11.05;;;;;;;21.26;57.59;94940.97;5002464;28;20231;-70
2022/08/29 03:05:33;;;;;;;14.30;12.32;;;;;;;21.30;57.72;94945.66;5011019;28;20222;-70
2022/08/29 03:08:00;;;;;;;15.45;11.85;;;;;;;21.18;58.28;94949.28;5005006;28;20203;-70
2022/08/29 03:10:25;;;;;;;15.32;11.68;;;;;;;21.24;58.03;94951.06;5009556;28;20214;-70
2022/08/29 03:12:51;;;;;;;12.55;11.18;;;;;;;21.30;58.16;94948.34;5008940;28;20217;-70
2022/08/29 03:15:17;;;;;;;13.40;11.52;;;;;;;21.42;58.09;94945.78;5010357;28;20718;-70
2022/08/29 03:17:43;;;;;;;14.95;11.65;;;;;;;21.23;58.48;94955.59;4998672;28;20541;-70
2022/08/29 03:20:10;;;;;;;12.70;10.82;;;;;;;21.06;59.10;94951.81;5004561;28;20338;-70
2022/08/29 03:22:36;;;;;;;13.68;11.13;;;;;;;21.15;58.66;94961.22;5015522;28;20229;-70
2022/08/29 03:25:03;;;;;;;14.48;11.98;;;;;;;21.22;58.56;94959.28;5009944;28;20222;-70
2022/08/29 03:27:30;;;;;;;13.43;10.63;;;;;;;21.02;59.41;94955.97;5009389;28;20221;-70
2022/08/29 03:29:56;;;;;;;16.67;13.10;;;;;;;20.97;59.40;94953.94;5008552;28;20253;-70
2022/08/29 03:32:23;;;;;;;13.82;11.40;;;;;;;21.09;59.11;94967.41;5011419;28;20671;-70
2022/08/29 03:34:49;;;;;;;17.05;11.30;;;;;;;21.01;59.28;94959.66;5012018;28;20254;-70
2022/08/29 03:37:18;;;;;;;17.67;11.45;;;;;;;20.93;59.71;94968.81;5008963;28;20301;-70
2022/08/29 03:39:44;;;;;;;15.52;12.48;;;;;;;20.97;59.46;94961.16;4997908;28;20230;-70
2022/08/29 03:42:10;;;;;;;15.88;11.52;;;;;;;20.97;59.33;94963.84;5009843;28;20229;-70
2022/08/29 03:44:38;;;;;;;19.65;11.63;;;;;;;20.99;59.22;94962.59;5013899;28;20206;-70
2022/08/29 03:47:04;;;;;;;14.30;11.80;;;;;;;21.09;58.74;94962.91;5010696;28;21085;-70
2022/08/29 03:49:30;;;;;;;14.88;11.70;;;;;;;21.06;58.88;94958.00;5007248;28;20230;-70
2022/08/29 03:51:56;;;;;;;16.13;11.27;;;;;;;21.12;58.92;94959.00;5003177;28;20253;-70
2022/08/29 03:54:22;;;;;;;12.00;10.73;;;;;;;21.10;58.64;94969.06;5007036;28;20227;-70
2022/08/29 03:56:47;;;;;;;15.77;11.15;;;;;;;21.19;58.18;94965.06;5008325;28;20249;-70
2022/08/29 03:59:13;;;;;;;16.48;11.65;;;;;;;21.11;58.53;94976.84;4997099;28;20210;-70
2022/08/29 04:01:38;;;;;;;16.00;11.13;;;;;;;21.16;58.13;94973.53;5007897;28;20219;-70
2022/08/29 04:04:05;;;;;;;13.65;11.02;;;;;;;21.01;58.74;94965.88;5006731;28;20226;-70
2022/08/29 04:06:32;;;;;;;14.50;11.25;;;;;;;21.05;59.02;94968.91;5010428;28;20226;-70
2022/08/29 04:08:57;;;;;;;15.13;11.85;;;;;;;21.16;58.99;94976.22;4989190;28;20218;-71
2022/08/29 04:11:24;;;;;;;19.33;12.02;;;;;;;21.03;59.29;94985.16;5016288;28;20701;-69
2022/08/29 04:13:51;;;;;;;15.80;12.43;;;;;;;20.97;59.46;94986.03;5003315;28;20229;-70
2022/08/29 04:16:20;;;;;;;14.57;11.80;;;;;;;20.93;59.36;94968.81;5008641;28;20262;-70
2022/08/29 04:18:46;;;;;;;17.98;11.93;;;;;;;21.03;58.74;94973.66;5006326;28;20719;-69
2022/08/29 04:21:12;;;;;;;18.10;13.23;;;;;;;21.09;58.35;94980.78;5005013;28;20230;-70
2022/08/29 04:23:38;;;;;;;22.65;12.82;;;;;;;21.16;57.84;94984.25;4997731;28;20212;-70
2022/08/29 04:26:04;;;;;;;17.80;12.43;;;;;;;21.06;57.75;94982.06;5007469;28;20698;-70
2022/08/29 04:28:30;;;;;;;20.67;11.45;;;;;;;21.13;57.72;94984.69;5008395;28;20254;-70
2022/08/29 04:30:56;;;;;;;13.05;11.80;;;;;;;21.12;58.62;94989.22;5005844;28;20320;-70
2022/08/29 04:33:23;;;;;;;14.45;12.15;;;;;;;21.25;58.44;95003.50;5013031;28;20218;-70
2022/08/29 04:35:50;;;;;;;15.43;12.68;;;;;;;21.20;58.83;94996.16;5008376;28;21007;-69
2022/08/29 04:38:16;;;;;;;17.83;12.07;;;;;;;21.28;57.84;94995.88;5004337;28;20202;-70
2022/08/29 04:40:41;;;;;;;19.30;13.05;;;;;;;21.17;57.95;94990.41;5008000;28;20391;-69
2022/08/29 04:43:08;;;;;;;16.13;13.10;;;;;;;21.22;57.96;94994.06;5011183;28;20223;-70
2022/08/29 04:45:34;;;;;;;15.55;12.38;;;;;;;21.30;57.56;94993.81;5008662;28;20227;-71
2022/08/29 04:48:02;;;;;;;16.17;12.05;;;;;;;21.38;57.40;94999.94;5006443;28;20236;-70
2022/08/29 04:50:28;;;;;;;13.68;11.77;;;;;;;21.35;57.88;94993.13;5011052;28;20203;-71
2022/08/29 04:52:54;;;;;;;18.73;11.85;;;;;;;21.53;57.58;95003.09;5008502;28;20219;-71
2022/08/29 04:55:22;;;;;;;20.20;12.48;;;;;;;21.26;58.55;95005.16;5011750;28;21630;-72
2022/08/29 04:57:49;;;;;;;18.52;12.40;;;;;;;21.03;59.00;95011.06;5015248;28;20235;-72
2022/08/29 05:00:19;;;;;;;18.60;12.50;;;;;;;21.06;59.26;95010.63;5001886;28;20331;-71
2022/08/29 05:02:44;;;;;;;16.35;11.93;;;;;;;21.15;57.64;95014.69;5012431;28;20281;-70
2022/08/29 05:05:12;;;;;;;15.00;11.82;;;;;;;21.33;57.11;95012.09;5011162;28;20210;-70
2022/08/29 05:07:38;;;;;;;15.23;12.65;;;;;;;21.35;58.13;95015.34;5012399;28;20234;-70
2022/08/29 05:10:10;;;;;;;17.23;12.77;;;;;;;21.47;58.49;95017.34;5010211;28;20226;-70
2022/08/29 05:12:36;;;;;;;13.90;11.05;;;;;;;21.43;57.34;95022.31;5006738;28;20211;-69
2022/08/29 05:15:04;;;;;;;17.73;11.55;;;;;;;21.33;56.83;95013.91;5006296;28;20224;-70
2022/08/29 05:17:29;;;;;;;17.20;11.77;;;;;;;21.67;56.22;95022.50;5020567;28;20214;-70
2022/08/29 05:19:55;;;;;;;14.63;12.95;;;;;;;21.96;56.51;95029.00;5015908;28;20334;-71
2022/08/29 05:22:21;;;;;;;14.10;12.20;;;;;;;21.93;56.85;95030.28;5013228;28;20226;-71
2022/08/29 05:24:50;;;;;;;16.25;12.50;;;;;;;22.10;55.77;95033.16;5004593;28;20223;-71
2022/08/29 05:27:19;;;;;;;17.35;13.10;;;;;;;22.43;54.69;95032.84;5014375;28;20243;-71
2022/08/29 05:29:47;;;;;;;14.73;12.82;;;;;;;22.26;54.90;95031.78;4999734;28;20349;-73
2022/08/29 05:32:13;;;;;;;17.85;13.75;;;;;;;22.26;54.45;95026.44;4996718;28;20306;-72
2022/08/29 05:34:41;;;;;;;15.18;12.57;;;;;;;22.30;54.69;95033.00;5008908;28;20224;-71
2022/08/29 05:37:11;;;;;;;14.80;13.27;;;;;;;22.63;53.21;95037.09;5002359;28;20223;-71
2022/08/29 05:39:38;;;;;;;15.65;12.45;;;;;;;22.53;52.81;95036.81;5008482;28;20241;-70
2022/08/29 05:42:04;;;;;;;15.65;12.70;;;;;;;22.60;52.78;95038.38;5012053;28;20218;-71
2022/08/29 05:44:31;;;;;;;15.15;13.20;;;;;;;22.57;53.15;95048.75;5013871;28;20284;-71
2022/08/29 05:46:58;;;;;;;12.38;11.18;;;;;;;22.47;52.74;95049.25;5010570;28;20300;-72
2022/08/29 05:49:24;;;;;;;14.27;11.05;;;;;;;22.53;52.47;95050.22;4999434;28;20227;-70
2022/08/29 05:51:54;;;;;;;66.18;15.90;;;;;;;22.63;52.31;95040.59;5006133;28;20223;-70
2022/08/29 05:54:21;;;;;;;28.98;13.00;;;;;;;22.53;52.67;95042.19;5004613;28;20306;-70
2022/08/29 05:56:46;;;;;;;17.73;13.20;;;;;;;22.29;54.00;95044.72;5005247;28;20203;-69
2022/08/29 05:59:12;;;;;;;16.48;13.52;;;;;;;22.44;53.46;95045.16;5012984;28;20214;-73
2022/08/29 06:01:38;;;;;;;15.52;13.05;;;;;;;22.52;53.39;95048.59;5005371;28;20262;-69
2022/08/29 06:04:04;;;;;;;19.13;13.30;;;;;;;22.73;52.75;95048.13;5008749;28;20226;-69
2022/08/29 06:06:30;;;;;;;17.20;13.57;;;;;;;22.84;52.38;95055.38;5008129;28;20217;-66
2022/08/29 06:08:57;;;;;;;20.50;13.07;;;;;;;22.73;52.48;95047.31;5004751;28;20229;-69
2022/08/29 06:11:26;;;;;;;14.68;13.13;;;;;;;22.90;52.22;95049.09;5000935;28;20199;-70
2022/08/29 06:13:55;;;;;;;15.82;13.52;;;;;;;22.95;52.30;95044.94;4997902;28;20211;-72
2022/08/29 06:16:22;;;;;;;15.70;13.27;;;;;;;22.86;52.70;95047.94;5003367;28;20606;-71
2022/08/29 06:18:48;;;;;;;15.35;13.70;;;;;;;22.94;52.88;95043.31;5005836;28;20598;-71
2022/08/29 06:21:14;;;;;;;17.55;14.55;;;;;;;23.28;51.82;95050.66;5005379;28;20318;-69
2022/08/29 06:23:42;;;;;;;15.63;13.75;;;;;;;23.13;51.12;95046.78;5002619;28;20205;-69
2022/08/29 06:26:09;;;;;;;18.58;15.02;;;;;;;23.44;50.50;95056.38;5002983;28;20273;-69
2022/08/29 06:28:36;;;;;;;16.10;14.45;;;;;;;23.33;50.71;95055.31;5002081;28;20214;-68
2022/08/29 06:31:20;;;;;;;17.40;14.63;;;;;;;23.40;50.62;95047.19;5005968;28;20222;-69
2022/08/29 06:33:49;;;;;;;15.95;13.88;;;;;;;23.57;49.93;95048.13;5002537;28;20226;-68
2022/08/29 06:36:14;;;;;;;17.67;13.38;;;;;;;23.53;49.90;95050.47;5008421;28;20226;-69
2022/08/29 06:38:40;;;;;;;15.85;14.25;;;;;;;23.51;50.14;95041.00;5002290;28;20778;-68
2022/08/29 06:41:14;;;;;;;16.83;13.75;;;;;;;23.79;49.27;95043.06;5002437;28;20214;-69
2022/08/29 06:43:40;;;;;;;17.65;14.35;;;;;;;23.80;50.42;95046.53;5009840;28;20317;-67
2022/08/29 06:46:07;;;;;;;17.95;13.30;;;;;;;23.70;50.14;95047.09;5008157;28;20297;-65
2022/08/29 06:48:32;;;;;;;16.83;13.10;;;;;;;23.99;49.58;95051.56;5008813;28;20223;-69
2022/08/29 06:51:00;;;;;;;15.68;12.68;;;;;;;24.13;48.86;95046.75;5007373;28;20225;-68
2022/08/29 06:53:27;;;;;;;17.42;12.23;;;;;;;24.25;48.34;95054.81;5009175;28;20202;-68
2022/08/29 06:55:53;;;;;;;18.10;12.50;;;;;;;24.28;48.04;95054.31;5006300;28;20219;-68
2022/08/29 06:58:19;;;;;;;16.88;12.10;;;;;;;24.39;47.47;95061.53;5004832;28;20226;-68
2022/08/29 07:00:44;;;;;;;26.02;12.95;;;;;;;24.51;47.53;95058.88;5004817;28;20219;-68
2022/08/29 07:03:10;;;;;;;20.98;11.55;;;;;;;24.41;46.84;95056.75;5010480;28;20250;-68
2022/08/29 07:05:36;;;;;;;18.20;10.40;;;;;;;24.49;47.10;95060.97;5009603;28;20694;-69
2022/08/29 07:08:02;;;;;;;15.90;10.07;;;;;;;24.45;47.25;95065.19;5009782;28;20195;-69
2022/08/29 07:10:29;;;;;;;16.73;11.52;;;;;;;24.53;47.54;95067.50;5007559;28;20590;-69
2022/08/29 07:12:54;;;;;;;12.30;10.48;;;;;;;24.01;48.47;95064.75;5008172;28;20954;-69
2022/08/29 07:15:21;;;;;;;15.38;11.00;;;;;;;24.29;47.06;95063.19;5013350;28;20277;-69
2022/08/29 07:17:48;;;;;;;12.25;10.10;;;;;;;24.48;47.25;95067.38;5007455;28;20210;-69
2022/08/29 07:20:15;;;;;;;15.55;10.20;;;;;;;24.51;46.34;95075.00;5002654;28;20592;-70
2022/08/29 07:22:41;;;;;;;12.80;10.15;;;;;;;24.70;45.77;95074.81;5000055;28;20231;-70
2022/08/29 07:25:07;;;;;;;16.20;10.45;;;;;;;24.39;46.46;95074.97;5003642;28;20226;-69
2022/08/29 07:27:33;;;;;;;14.45;11.20;;;;;;;24.54;46.15;95079.06;5009989;28;20222;-69
2022/08/29 07:30:01;;;;;;;15.38;10.80;;;;;;;24.61;45.59;95074.38;5011402;28;20230;-70
2022/08/29 07:32:31;;;;;;;13.68;11.00;;;;;;;24.61;45.85;95075.19;5012718;28;20546;-70
2022/08/29 07:34:57;;;;;;;17.77;10.27;;;;;;;24.54;45.69;95077.22;5009411;28;21302;-70
2022/08/29 07:37:22;;;;;;;12.88;9.57;;;;;;;24.85;44.76;95091.25;5008139;28;20229;-68
2022/08/29 07:39:48;;;;;;;20.80;10.77;;;;;;;24.94;44.46;95089.84;5009007;28;20227;-69
2022/08/29 07:42:14;;;;;;;12.35;9.77;;;;;;;25.04;43.88;95079.25;5009483;28;20233;-69
2022/08/29 07:44:39;;;;;;;11.77;9.07;;;;;;;25.27;43.35;95078.34;5011872;28;20198;-68
2022/08/29 07:47:05;;;;;;;10.55;8.90;;;;;;;25.13;43.70;95079.69;5009152;28;20206;-69
2022/08/29 07:49:32;;;;;;;15.57;10.07;;;;;;;25.37;42.78;95079.59;5007128;28;20238;-68
2022/08/29 07:51:58;;;;;;;16.65;9.85;;;;;;;25.29;43.28;95078.94;5000402;28;20218;-69
2022/08/29 07:54:24;;;;;;;16.20;8.50;;;;;;;25.41;43.40;95089.63;5007766;28;20317;-69
2022/08/29 07:56:51;;;;;;;12.23;9.45;;;;;;;25.57;43.21;95081.81;5004720;28;20298;-69
2022/08/29 07:59:19;;;;;;;15.25;9.68;;;;;;;25.72;42.84;95077.50;5005134;28;20207;-69
2022/08/29 08:01:45;;;;;;;9.57;8.05;;;;;;;25.90;41.50;95076.47;5009401;28;20215;-69
2022/08/29 08:04:11;;;;;;;13.77;9.85;;;;;;;26.10;41.29;95073.25;5000139;28;20227;-69
2022/08/29 08:06:39;;;;;;;12.35;9.07;;;;;;;26.09;41.44;95068.94;5008304;28;20232;-68
2022/08/29 08:09:06;;;;;;;10.48;9.15;;;;;;;26.24;40.88;95078.28;5008135;28;20280;-69
2022/08/29 08:11:32;;;;;;;11.55;9.55;;;;;;;26.14;41.69;95070.88;5004623;28;20306;-68
2022/08/29 08:13:57;;;;;;;13.38;8.60;;;;;;;26.07;41.93;95067.56;5007511;28;20297;-69
2022/08/29 08:16:25;;;;;;;10.38;8.95;;;;;;;26.28;41.32;95063.28;5005718;28;20245;-67
2022/08/29 08:18:52;;;;;;;14.45;9.25;;;;;;;26.33;41.66;95064.16;5008954;28;20237;-69
2022/08/29 08:21:18;;;;;;;13.55;8.30;;;;;;;26.35;40.96;95067.38;5013247;28;20218;-71
2022/08/29 08:23:43;;;;;;;12.02;8.63;;;;;;;26.43;40.50;95059.94;5012201;28;20207;-69
2022/08/29 08:26:10;;;;;;;14.25;8.95;;;;;;;26.57;41.20;95059.38;5009228;28;20203;-70
2022/08/29 08:28:46;;;;;;;12.30;8.40;;;;;;;26.85;40.57;95052.13;5009412;28;20731;-69
2022/08/29 08:31:14;;;;;;;12.20;9.05;;;;;;;26.97;40.70;95051.97;5010798;28;20234;-70
2022/08/29 08:33:39;;;;;;;14.25;8.85;;;;;;;27.09;40.77;95055.34;5022938;28;20222;-70
2022/08/29 08:36:17;;;;;;;12.43;8.23;;;;;;;26.97;40.69;95057.38;5010546;28;20221;-69
2022/08/29 08:38:43;;;;;;;11.82;8.80;;;;;;;27.13;41.11;95063.75;5009978;28;20297;-67
2022/08/29 08:41:23;;;;;;;12.10;8.70;;;;;;;27.25;40.21;95054.47;5016402;28;20559;-68
2022/08/29 08:43:53;;;;;;;10.57;8.77;;;;;;;27.19;40.68;95052.78;5009868;28;20283;-68
2022/08/29 08:46:46;;;;;;;14.27;9.00;;;;;;;27.14;40.80;95052.72;5023230;28;20230;-68
2022/08/29 08:49:11;;;;;;;13.70;8.82;;;;;;;27.20;40.75;95054.41;4948928;28;20700;-67
2022/08/29 08:51:42;;;;;;;10.05;9.07;;;;;;;27.49;40.21;95048.75;4949096;28;20299;-69
2022/08/29 08:54:16;;;;;;;16.08;9.60;;;;;;;27.49;40.41;95046.03;4951186;28;20259;-69
2022/08/29 08:56:45;;;;;;;10.23;9.18;;;;;;;27.31;41.48;95046.41;4947812;28;20294;-68
2022/08/29 08:59:19;;;;;;;9.65;8.65;;;;;;;27.37;40.45;95043.53;4950585;28;20203;-67
2022/08/29 09:01:56;;;;;;;11.57;8.65;;;;;;;27.32;40.61;95037.22;4967614;28;20936;-66
2022/08/29 09:04:46;;;;;;;13.50;9.20;;;;;;;27.23;41.07;95039.59;4968885;28;20228;-66
2022/08/29 09:07:17;;;;;;;11.18;8.65;;;;;;;27.25;41.25;95043.66;4951177;28;20600;-69
2022/08/29 09:10:07;;;;;;;14.32;9.40;;;;;;;27.37;40.39;95045.38;4937050;28;20732;-68
2022/08/29 09:12:33;;;;;;;10.68;9.13;;;;;;;27.45;40.72;95044.91;4947034;28;20364;-70
2022/08/29 09:14:59;;;;;;;11.95;9.60;;;;;;;27.62;40.36;95034.81;4964495;28;20242;-69
2022/08/29 09:17:40;;;;;;;12.30;8.73;;;;;;;27.75;40.01;95033.56;4948143;28;20251;-69
2022/08/29 09:20:09;;;;;;;11.52;9.07;;;;;;;27.74;39.96;95039.22;4948942;28;20314;-65
2022/08/29 09:22:39;;;;;;;9.63;8.68;;;;;;;27.83;39.49;95038.50;4949334;28;20232;-69
2022/08/29 09:25:07;;;;;;;12.38;8.82;;;;;;;27.79;39.21;95045.47;4950956;28;20251;-67
2022/08/29 09:27:36;;;;;;;17.25;9.32;;;;;;;27.58;39.88;95039.09;4989049;28;20224;-68
2022/08/29 09:30:07;;;;;;;11.45;8.77;;;;;;;27.84;39.56;95036.63;4987797;28;20245;-67
2022/08/29 09:32:51;;;;;;;10.80;8.52;;;;;;;27.92;38.50;95033.44;5003788;28;20203;-69
2022/08/29 09:35:23;;;;;;;11.90;8.85;;;;;;;28.12;38.42;95025.47;4985887;28;20226;-66
2022/08/29 09:38:17;;;;;;;10.13;8.63;;;;;;;28.31;38.95;95020.41;4986686;28;20309;-67
2022/08/29 09:40:50;;;;;;;11.18;8.57;;;;;;;28.25;38.77;95026.03;4986824;28;20223;-67
2022/08/29 09:43:37;;;;;;;9.48;8.40;;;;;;;28.12;38.77;95022.75;4986237;28;20389;-65
2022/08/29 09:46:24;;;;;;;11.50;8.02;;;;;;;28.15;38.31;95018.72;4988145;28;20231;-65
2022/08/29 09:49:17;;;;;;;10.23;7.75;;;;;;;28.11;38.89;95018.41;4990966;28;20692;-68
2022/08/29 09:51:47;;;;;;;12.27;8.07;;;;;;;28.24;38.33;95019.03;4931211;28;20233;-66
2022/08/29 09:54:27;;;;;;;9.48;8.57;;;;;;;28.43;38.08;95004.00;4951117;28;20225;-70
2022/08/29 09:57:18;;;;;;;12.95;8.63;;;;;;;28.50;37.93;95009.97;4943943;28;20836;-67
2022/08/29 09:59:48;;;;;;;12.40;8.32;;;;;;;28.37;37.48;95007.72;4945902;28;20475;-69
2022/08/29 10:02:29;;;;;;;10.65;8.90;;;;;;;28.32;38.83;95002.28;4935236;28;20683;-68
2022/08/29 10:05:09;;;;;;;9.07;7.55;;;;;;;28.26;37.12;95006.06;4945811;29;20225;-68
2022/08/29 10:07:48;;;;;;;11.15;8.50;;;;;;;28.28;37.47;95001.19;4927559;29;20237;-68
2022/08/29 10:10:15;;;;;;;11.25;7.78;;;;;;;28.01;37.97;95006.72;4938492;29;20307;-68
2022/08/29 10:12:40;;;;;;;18.67;8.30;;;;;;;27.95;37.22;95002.38;4921959;29;20324;-68
2022/08/29 10:15:11;;;;;;;11.60;7.97;;;;;;;27.83;36.62;95000.69;4923836;29;20240;-65
2022/08/29 10:21:01;;;;;;;10.43;8.23;;;;;;;27.57;39.31;94983.44;4938872;29;20925;-68
2022/08/29 10:23:58;;;;;;;12.85;8.70;;;;;;;27.68;39.50;94978.94;4930229;29;20304;-67
2022/08/29 10:26:43;;;;;;;12.15;8.85;;;;;;;27.62;40.16;94978.09;4931847;28;20223;-66
2022/08/29 10:29:09;;;;;;;16.75;9.57;;;;;;;27.42;41.07;94988.72;4969526;28;20263;-66
2022/08/29 10:31:41;;;;;;;13.13;9.15;;;;;;;27.22;41.10;94986.69;4986720;28;20227;-68
2022/08/29 10:34:15;;;;;;;11.52;8.18;;;;;;;27.05;40.98;94982.19;4985326;28;20224;-69
2022/08/29 10:36:48;;;;;;;14.43;8.60;;;;;;;26.84;41.34;94981.19;4997461;28;20309;-68
2022/08/29 10:39:34;;;;;;;12.63;8.80;;;;;;;26.73;42.24;94975.91;4984416;28;20258;-68
2022/08/29 10:42:15;;;;;;;12.93;9.32;;;;;;;26.51;42.78;94973.22;4990030;28;20207;-70
2022/08/29 10:45:05;;;;;;;11.07;8.32;;;;;;;26.49;42.84;94972.66;4985516;28;20296;-69
2022/08/29 10:47:39;;;;;;;10.25;8.30;;;;;;;26.44;43.01;94965.34;5001392;28;20220;-69
2022/08/29 10:50:26;;;;;;;14.48;9.32;;;;;;;26.49;42.52;94968.09;4985512;28;20337;-69
2022/08/29 10:53:02;;;;;;;16.38;9.02;;;;;;;26.37;43.13;94967.41;4988961;28;20257;-69
2022/08/29 10:55:27;;;;;;;12.50;9.38;;;;;;;26.46;42.23;94968.59;4995413;28;20255;-69
2022/08/29 10:58:08;;;;;;;11.65;8.85;;;;;;;26.46;41.84;94970.47;4990583;28;20243;-70
2022/08/29 11:00:40;;;;;;;13.95;8.80;;;;;;;26.36;42.44;94974.69;4987810;28;20385;-70
2022/08/29 11:03:21;;;;;;;12.75;8.95;;;;;;;26.40;41.27;94967.72;4985944;28;20223;-69
2022/08/29 11:06:00;;;;;;;9.85;8.82;;;;;;;26.49;40.96;94969.97;4990078;28;20205;-69
2022/08/29 11:08:36;;;;;;;12.98;8.85;;;;;;;26.47;41.77;94959.44;4997973;28;20208;-68
2022/08/29 11:11:03;;;;;;;13.15;8.52;;;;;;;26.55;41.87;94956.31;4989443;28;20225;-67
2022/08/29 11:13:35;;;;;;;8.45;7.53;;;;;;;26.53;42.12;94954.94;4988728;28;20584;-69
2022/08/29 11:16:22;;;;;;;10.25;8.05;;;;;;;26.60;42.23;94940.22;4999103;28;20234;-68
2022/08/29 11:18:53;;;;;;;14.40;8.73;;;;;;;26.70;41.87;94934.06;5001398;28;20238;-66
2022/08/29 11:21:48;;;;;;;11.20;8.35;;;;;;;27.05;40.73;94924.69;5007473;28;20222;-68
2022/08/29 11:24:17;;;;;;;17.13;8.48;;;;;;;27.39;40.25;94921.75;5007537;28;20309;-68
2022/08/29 11:26:42;;;;;;;13.60;8.95;;;;;;;27.75;39.47;94920.09;5007569;28;20530;-69
2022/08/29 11:29:29;;;;;;;17.17;8.20;;;;;;;28.23;38.19;94920.88;5005692;28;20217;-69
2022/08/29 11:32:04;;;;;;;13.77;8.35;;;;;;;28.64;37.14;94926.44;5000282;28;20230;-69
2022/08/29 11:35:10;;;;;;;14.60;8.73;;;;;;;28.91;36.20;94918.09;5009320;28;20308;-69
2022/08/29 11:38:07;;;;;;;11.57;7.45;;;;;;;29.34;35.25;94923.25;5005440;28;20223;-69